Munford, Alabama
Current Conditions -  °F | °C
As of 3:15 AM on Monday 24 Nov 2014 (Local Time) from KASN Reporting Station
Broken Clouds Broken Clouds  
Wind Chill: 64°   Ceiling: 2700
Heat Index: 64°   Visibility: 10mi
Dew Point: 59°   Wind: 7mph
Humidity: 84%   Direction: 220°SW
Pressure: 29.71"   Gusts: NA
Location:  33.53°N, 85.95°W
Report Text: KASN 240915Z AUTO 22006KT 10SM BKN027 18/15 A2971 RMK AO2 T01790151
Loading
Personal Weather Stations






























Interactive Weather Map New forecast layout! Learn more

10-Day Weather Forecast

Advertisements
Track Severe Weather on mobile